sensor_id;sensor_type;location;lat;lon;timestamp;P1;P2;P0
76049;PMS7003;64967;50.234;19.224;2023-08-20T00:00:19;6.00;6.00;6.00
76049;PMS7003;64967;50.234;19.224;2023-08-20T00:02:46;8.00;7.00;6.00
76049;PMS7003;64967;50.234;19.224;2023-08-20T00:05:17;7.33;6.67;6.00
76049;PMS7003;64967;50.234;19.224;2023-08-20T00:07:45;7.00;7.00;5.67
76049;PMS7003;64967;50.234;19.224;2023-08-20T00:10:12;6.67;6.67;5.67
76049;PMS7003;64967;50.234;19.224;2023-08-20T00:12:39;7.33;7.33;5.67
76049;PMS7003;64967;50.234;19.224;2023-08-20T00:15:06;5.33;5.33;5.33
76049;PMS7003;64967;50.234;19.224;2023-08-20T00:17:37;5.67;5.67;4.67
76049;PMS7003;64967;50.234;19.224;2023-08-20T00:20:05;9.00;8.00;7.00
76049;PMS7003;64967;50.234;19.224;2023-08-20T00:22:36;8.00;7.00;5.67
76049;PMS7003;64967;50.234;19.224;2023-08-20T00:25:11;8.33;7.67;7.33
76049;PMS7003;64967;50.234;19.224;2023-08-20T00:27:39;7.00;7.00;6.33
76049;PMS7003;64967;50.234;19.224;2023-08-20T00:30:07;7.67;7.33;5.67
76049;PMS7003;64967;50.234;19.224;2023-08-20T00:32:35;8.67;8.00;6.67
76049;PMS7003;64967;50.234;19.224;2023-08-20T00:35:03;7.00;7.00;7.00
76049;PMS7003;64967;50.234;19.224;2023-08-20T00:37:30;6.33;6.33;5.67
76049;PMS7003;64967;50.234;19.224;2023-08-20T00:39:58;7.00;7.00;6.00
76049;PMS7003;64967;50.234;19.224;2023-08-20T00:42:25;7.00;7.00;5.33
76049;PMS7003;64967;50.234;19.224;2023-08-20T00:44:52;6.67;6.67;5.00
76049;PMS7003;64967;50.234;19.224;2023-08-20T00:47:19;8.00;7.33;6.33
76049;PMS7003;64967;50.234;19.224;2023-08-20T00:49:47;5.33;5.00;4.67
76049;PMS7003;64967;50.234;19.224;2023-08-20T00:52:16;6.00;6.00;5.00
76049;PMS7003;64967;50.234;19.224;2023-08-20T00:54:44;8.33;8.33;7.67
76049;PMS7003;64967;50.234;19.224;2023-08-20T00:57:15;6.67;6.67;5.67
76049;PMS7003;64967;50.234;19.224;2023-08-20T00:59:44;9.00;9.00;7.00
76049;PMS7003;64967;50.234;19.224;2023-08-20T01:02:16;9.00;9.00;7.33
76049;PMS7003;64967;50.234;19.224;2023-08-20T01:04:45;12.33;11.00;8.33
76049;PMS7003;64967;50.234;19.224;2023-08-20T01:12:24;8.00;8.00;7.00
76049;PMS7003;64967;50.234;19.224;2023-08-20T01:14:51;6.00;5.67;5.00
76049;PMS7003;64967;50.234;19.224;2023-08-20T01:17:17;9.33;8.67;7.33
76049;PMS7003;64967;50.234;19.224;2023-08-20T01:19:45;7.00;6.33;6.00
76049;PMS7003;64967;50.234;19.224;2023-08-20T01:31:00;5.00;5.00;4.67
76049;PMS7003;64967;50.234;19.224;2023-08-20T01:33:27;8.00;7.33;7.00
76049;PMS7003;64967;50.234;19.224;2023-08-20T01:35:54;5.00;5.00;4.00
76049;PMS7003;64967;50.234;19.224;2023-08-20T01:38:21;9.00;8.67;7.33
76049;PMS7003;64967;50.234;19.224;2023-08-20T01:40:48;9.00;8.67;8.00
76049;PMS7003;64967;50.234;19.224;2023-08-20T01:43:16;14.33;12.67;9.33
76049;PMS7003;64967;50.234;19.224;2023-08-20T01:45:43;17.33;17.00;13.00
76049;PMS7003;64967;50.234;19.224;2023-08-20T01:48:09;20.00;19.00;15.00
76049;PMS7003;64967;50.234;19.224;2023-08-20T01:50:36;18.00;16.00;12.00
76049;PMS7003;64967;50.234;19.224;2023-08-20T01:53:03;9.33;9.33;8.00
76049;PMS7003;64967;50.234;19.224;2023-08-20T01:55:30;14.67;13.33;11.33
76049;PMS7003;64967;50.234;19.224;2023-08-20T01:57:58;10.00;10.00;7.00
76049;PMS7003;64967;50.234;19.224;2023-08-20T02:00:25;9.00;9.00;7.33
76049;PMS7003;64967;50.234;19.224;2023-08-20T02:02:52;9.67;7.67;7.00
76049;PMS7003;64967;50.234;19.224;2023-08-20T02:05:19;12.67;10.67;8.00
76049;PMS7003;64967;50.234;19.224;2023-08-20T02:07:46;11.67;11.33;9.00
76049;PMS7003;64967;50.234;19.224;2023-08-20T02:10:14;10.67;10.00;8.00
76049;PMS7003;64967;50.234;19.224;2023-08-20T02:12:41;7.00;7.00;6.00
76049;PMS7003;64967;50.234;19.224;2023-08-20T02:15:08;7.67;7.00;6.00
76049;PMS7003;64967;50.234;19.224;2023-08-20T02:17:37;11.00;11.00;8.00
76049;PMS7003;64967;50.234;19.224;2023-08-20T02:20:04;13.67;11.67;10.00
76049;PMS7003;64967;50.234;19.224;2023-08-20T02:22:31;16.00;15.00;12.00
76049;PMS7003;64967;50.234;19.224;2023-08-20T02:25:00;15.00;13.33;11.33
76049;PMS7003;64967;50.234;19.224;2023-08-20T02:27:27;13.33;11.67;9.67
76049;PMS7003;64967;50.234;19.224;2023-08-20T02:29:54;15.33;15.33;12.33
76049;PMS7003;64967;50.234;19.224;2023-08-20T02:32:21;16.67;16.00;12.00
76049;PMS7003;64967;50.234;19.224;2023-08-20T02:34:51;27.25;26.00;18.75
76049;PMS7003;64967;50.234;19.224;2023-08-20T02:37:18;27.75;25.25;17.75
76049;PMS7003;64967;50.234;19.224;2023-08-20T02:39:45;20.50;20.00;15.50
76049;PMS7003;64967;50.234;19.224;2023-08-20T02:42:12;19.00;17.67;14.00
76049;PMS7003;64967;50.234;19.224;2023-08-20T02:44:38;14.33;13.33;11.00
76049;PMS7003;64967;50.234;19.224;2023-08-20T02:47:05;10.67;8.00;7.00
76049;PMS7003;64967;50.234;19.224;2023-08-20T02:49:32;14.00;13.67;10.00
76049;PMS7003;64967;50.234;19.224;2023-08-20T02:51:59;12.00;12.00;10.00
76049;PMS7003;64967;50.234;19.224;2023-08-20T02:54:26;12.33;12.00;10.00
76049;PMS7003;64967;50.234;19.224;2023-08-20T02:56:53;12.00;11.33;9.00
76049;PMS7003;64967;50.234;19.224;2023-08-20T02:59:20;11.00;11.00;9.00
76049;PMS7003;64967;50.234;19.224;2023-08-20T03:01:47;9.33;8.33;7.67
76049;PMS7003;64967;50.234;19.224;2023-08-20T03:04:16;5.67;5.00;4.00
76049;PMS7003;64967;50.234;19.224;2023-08-20T03:06:43;7.00;7.00;5.00
76049;PMS7003;64967;50.234;19.224;2023-08-20T03:09:10;9.00;9.00;7.00
76049;PMS7003;64967;50.234;19.224;2023-08-20T03:11:37;8.67;8.33;7.33
76049;PMS7003;64967;50.234;19.224;2023-08-20T03:14:04;7.00;7.00;6.00
76049;PMS7003;64967;50.234;19.224;2023-08-20T03:16:31;8.00;8.00;6.67
76049;PMS7003;64967;50.234;19.224;2023-08-20T03:18:57;8.00;7.67;6.00
76049;PMS7003;64967;50.234;19.224;2023-08-20T03:21:24;8.00;7.00;7.00
76049;PMS7003;64967;50.234;19.224;2023-08-20T03:23:51;2.33;2.00;2.00
76049;PMS7003;64967;50.234;19.224;2023-08-20T03:26:17;7.00;7.00;6.33
76049;PMS7003;64967;50.234;19.224;2023-08-20T03:28:44;12.33;8.00;7.00
76049;PMS7003;64967;50.234;19.224;2023-08-20T03:31:11;9.00;8.00;7.33
76049;PMS7003;64967;50.234;19.224;2023-08-20T03:33:38;5.00;4.67;4.33
76049;PMS7003;64967;50.234;19.224;2023-08-20T03:36:05;5.00;4.67;4.33
76049;PMS7003;64967;50.234;19.224;2023-08-20T03:38:34;6.00;5.67;5.00
76049;PMS7003;64967;50.234;19.224;2023-08-20T03:41:04;8.00;6.00;5.00
76049;PMS7003;64967;50.234;19.224;2023-08-20T03:43:31;8.00;7.00;6.00
76049;PMS7003;64967;50.234;19.224;2023-08-20T03:45:58;5.00;5.00;4.00
76049;PMS7003;64967;50.234;19.224;2023-08-20T03:48:25;8.00;8.00;7.67
76049;PMS7003;64967;50.234;19.224;2023-08-20T03:50:52;12.67;12.00;9.67
76049;PMS7003;64967;50.234;19.224;2023-08-20T03:53:19;17.00;16.00;13.33
76049;PMS7003;64967;50.234;19.224;2023-08-20T03:55:49;16.67;16.33;12.67
76049;PMS7003;64967;50.234;19.224;2023-08-20T03:58:16;19.50;19.00;14.00
76049;PMS7003;64967;50.234;19.224;2023-08-20T04:00:43;21.50;18.75;14.00
76049;PMS7003;64967;50.234;19.224;2023-08-20T04:03:10;16.25;15.75;13.00
76049;PMS7003;64967;50.234;19.224;2023-08-20T04:05:37;12.67;12.67;10.33
76049;PMS7003;64967;50.234;19.224;2023-08-20T04:08:05;11.67;11.00;10.00
76049;PMS7003;64967;50.234;19.224;2023-08-20T04:10:32;13.67;10.67;9.67
76049;PMS7003;64967;50.234;19.224;2023-08-20T04:12:59;11.00;10.00;8.33
76049;PMS7003;64967;50.234;19.224;2023-08-20T04:15:26;24.25;22.50;15.00
76049;PMS7003;64967;50.234;19.224;2023-08-20T04:17:54;29.25;26.75;20.00
76049;PMS7003;64967;50.234;19.224;2023-08-20T04:20:21;21.00;19.33;13.00
76049;PMS7003;64967;50.234;19.224;2023-08-20T04:22:48;17.33;16.00;12.00
76049;PMS7003;64967;50.234;19.224;2023-08-20T04:25:15;21.50;19.75;14.00
76049;PMS7003;64967;50.234;19.224;2023-08-20T04:27:42;35.50;32.00;21.50
76049;PMS7003;64967;50.234;19.224;2023-08-20T04:30:09;32.50;29.00;17.75
76049;PMS7003;64967;50.234;19.224;2023-08-20T04:32:37;46.25;38.75;25.00
76049;PMS7003;64967;50.234;19.224;2023-08-20T04:35:03;33.75;31.50;22.50
76049;PMS7003;64967;50.234;19.224;2023-08-20T04:37:31;42.25;35.50;23.00
76049;PMS7003;64967;50.234;19.224;2023-08-20T04:39:58;37.75;31.25;20.00
76049;PMS7003;64967;50.234;19.224;2023-08-20T04:42:27;27.50;27.00;17.25
76049;PMS7003;64967;50.234;19.224;2023-08-20T04:44:54;29.25;28.00;18.00
76049;PMS7003;64967;50.234;19.224;2023-08-20T04:47:21;29.75;26.75;18.25
76049;PMS7003;64967;50.234;19.224;2023-08-20T04:49:48;23.25;20.00;15.75
76049;PMS7003;64967;50.234;19.224;2023-08-20T04:52:15;21.50;21.00;16.25
76049;PMS7003;64967;50.234;19.224;2023-08-20T04:54:41;25.75;24.00;16.25
76049;PMS7003;64967;50.234;19.224;2023-08-20T04:57:08;19.33;18.33;13.67
76049;PMS7003;64967;50.234;19.224;2023-08-20T04:59:35;19.33;16.33;12.00
76049;PMS7003;64967;50.234;19.224;2023-08-20T05:02:02;18.33;16.00;11.33
76049;PMS7003;64967;50.234;19.224;2023-08-20T05:04:29;15.67;14.33;12.00
76049;PMS7003;64967;50.234;19.224;2023-08-20T05:06:56;14.00;14.00;10.00
76049;PMS7003;64967;50.234;19.224;2023-08-20T05:09:26;14.67;13.67;11.00
76049;PMS7003;64967;50.234;19.224;2023-08-20T05:11:53;13.33;11.67;8.67
76049;PMS7003;64967;50.234;19.224;2023-08-20T05:14:20;13.67;11.33;8.33
76049;PMS7003;64967;50.234;19.224;2023-08-20T05:16:47;14.33;12.33;9.67
76049;PMS7003;64967;50.234;19.224;2023-08-20T05:19:14;12.00;12.00;9.33
76049;PMS7003;64967;50.234;19.224;2023-08-20T05:21:41;12.33;12.00;10.00
76049;PMS7003;64967;50.234;19.224;2023-08-20T05:24:08;14.33;14.33;13.00
76049;PMS7003;64967;50.234;19.224;2023-08-20T05:26:38;19.33;18.33;15.33
76049;PMS7003;64967;50.234;19.224;2023-08-20T05:29:05;17.33;16.67;13.67
76049;PMS7003;64967;50.234;19.224;2023-08-20T05:31:34;17.33;16.00;12.67
76049;PMS7003;64967;50.234;19.224;2023-08-20T05:34:01;12.00;12.00;10.00
76049;PMS7003;64967;50.234;19.224;2023-08-20T05:36:30;14.33;13.67;11.00
76049;PMS7003;64967;50.234;19.224;2023-08-20T05:39:00;24.00;22.67;16.33
76049;PMS7003;64967;50.234;19.224;2023-08-20T05:41:27;22.00;21.33;17.33
76049;PMS7003;64967;50.234;19.224;2023-08-20T05:43:54;17.67;16.67;12.67
76049;PMS7003;64967;50.234;19.224;2023-08-20T05:46:21;20.00;18.00;13.00
76049;PMS7003;64967;50.234;19.224;2023-08-20T05:48:48;14.00;13.33;11.00
76049;PMS7003;64967;50.234;19.224;2023-08-20T05:51:15;14.00;14.00;11.00
76049;PMS7003;64967;50.234;19.224;2023-08-20T05:53:47;27.33;25.33;17.67
76049;PMS7003;64967;50.234;19.224;2023-08-20T05:56:14;19.33;19.33;15.33
76049;PMS7003;64967;50.234;19.224;2023-08-20T05:58:41;24.33;23.67;17.00
76049;PMS7003;64967;50.234;19.224;2023-08-20T06:01:08;25.67;25.00;20.00
76049;PMS7003;64967;50.234;19.224;2023-08-20T06:03:34;37.33;33.33;24.00
76049;PMS7003;64967;50.234;19.224;2023-08-20T06:06:01;33.00;30.00;21.33
76049;PMS7003;64967;50.234;19.224;2023-08-20T06:08:32;35.33;32.00;23.00
76049;PMS7003;64967;50.234;19.224;2023-08-20T06:10:59;25.00;25.00;18.33
76049;PMS7003;64967;50.234;19.224;2023-08-20T06:13:31;32.67;29.67;21.67
76049;PMS7003;64967;50.234;19.224;2023-08-20T06:15:58;23.33;23.33;18.00
76049;PMS7003;64967;50.234;19.224;2023-08-20T06:18:25;25.33;24.33;19.00
76049;PMS7003;64967;50.234;19.224;2023-08-20T06:20:52;21.00;21.00;16.67
76049;PMS7003;64967;50.234;19.224;2023-08-20T06:23:18;20.33;17.33;13.33
76049;PMS7003;64967;50.234;19.224;2023-08-20T06:26:05;17.33;16.33;14.00
76049;PMS7003;64967;50.234;19.224;2023-08-20T06:28:32;14.00;14.00;11.33
76049;PMS7003;64967;50.234;19.224;2023-08-20T06:30:59;23.00;21.00;17.67
76049;PMS7003;64967;50.234;19.224;2023-08-20T06:33:26;17.00;16.00;15.33
76049;PMS7003;64967;50.234;19.224;2023-08-20T06:35:52;18.00;17.67;14.00
76049;PMS7003;64967;50.234;19.224;2023-08-20T06:38:19;18.00;17.33;13.00
76049;PMS7003;64967;50.234;19.224;2023-08-20T06:40:46;23.33;21.33;16.00
76049;PMS7003;64967;50.234;19.224;2023-08-20T06:43:14;16.33;15.33;12.33
76049;PMS7003;64967;50.234;19.224;2023-08-20T06:45:40;16.33;15.67;12.33
76049;PMS7003;64967;50.234;19.224;2023-08-20T06:48:07;20.67;19.00;15.00
76049;PMS7003;64967;50.234;19.224;2023-08-20T06:50:34;19.00;19.00;14.67
76049;PMS7003;64967;50.234;19.224;2023-08-20T06:53:03;15.33;15.00;12.33
76049;PMS7003;64967;50.234;19.224;2023-08-20T06:55:31;15.67;15.00;12.00
76049;PMS7003;64967;50.234;19.224;2023-08-20T06:57:58;16.67;16.00;12.33
76049;PMS7003;64967;50.234;19.224;2023-08-20T07:00:25;12.00;11.33;9.00
76049;PMS7003;64967;50.234;19.224;2023-08-20T07:02:52;15.33;12.33;10.00
76049;PMS7003;64967;50.234;19.224;2023-08-20T07:05:19;14.33;14.33;13.00
76049;PMS7003;64967;50.234;19.224;2023-08-20T07:07:45;17.00;14.67;12.33
76049;PMS7003;64967;50.234;19.224;2023-08-20T07:10:12;13.00;12.00;11.00
76049;PMS7003;64967;50.234;19.224;2023-08-20T07:12:39;27.67;25.67;19.67
76049;PMS7003;64967;50.234;19.224;2023-08-20T07:15:06;22.00;21.67;16.67
76049;PMS7003;64967;50.234;19.224;2023-08-20T07:17:33;19.67;18.33;16.00
76049;PMS7003;64967;50.234;19.224;2023-08-20T07:20:00;17.00;16.33;14.00
76049;PMS7003;64967;50.234;19.224;2023-08-20T07:22:27;18.00;17.00;14.00
76049;PMS7003;64967;50.234;19.224;2023-08-20T07:24:54;19.33;18.00;14.00
76049;PMS7003;64967;50.234;19.224;2023-08-20T07:27:21;16.00;14.00;12.00
76049;PMS7003;64967;50.234;19.224;2023-08-20T07:29:47;25.00;24.00;19.00
76049;PMS7003;64967;50.234;19.224;2023-08-20T07:32:14;30.33;29.00;22.00
76049;PMS7003;64967;50.234;19.224;2023-08-20T07:34:41;22.33;21.67;17.33
76049;PMS7003;64967;50.234;19.224;2023-08-20T07:37:08;17.00;17.00;14.00
76049;PMS7003;64967;50.234;19.224;2023-08-20T07:39:35;12.00;12.00;10.00
76049;PMS7003;64967;50.234;19.224;2023-08-20T07:42:01;12.00;11.00;10.00
76049;PMS7003;64967;50.234;19.224;2023-08-20T07:44:28;23.67;21.00;16.00
76049;PMS7003;64967;50.234;19.224;2023-08-20T07:46:55;22.00;20.67;16.33
76049;PMS7003;64967;50.234;19.224;2023-08-20T07:49:22;19.33;19.00;15.00
76049;PMS7003;64967;50.234;19.224;2023-08-20T07:51:49;21.00;20.00;15.67
76049;PMS7003;64967;50.234;19.224;2023-08-20T07:54:18;14.33;12.67;10.00
76049;PMS7003;64967;50.234;19.224;2023-08-20T07:56:45;12.33;12.00;10.00
76049;PMS7003;64967;50.234;19.224;2023-08-20T07:59:12;13.33;12.33;9.00
76049;PMS7003;64967;50.234;19.224;2023-08-20T08:01:38;19.67;16.67;13.00
76049;PMS7003;64967;50.234;19.224;2023-08-20T08:04:06;12.67;12.67;10.67
76049;PMS7003;64967;50.234;19.224;2023-08-20T08:06:41;11.33;11.00;9.00
76049;PMS7003;64967;50.234;19.224;2023-08-20T08:09:14;12.33;12.33;9.00
76049;PMS7003;64967;50.234;19.224;2023-08-20T08:11:45;11.67;11.67;10.00
76049;PMS7003;64967;50.234;19.224;2023-08-20T08:14:12;11.00;9.33;8.67
76049;PMS7003;64967;50.234;19.224;2023-08-20T08:16:39;15.33;15.00;11.00
76049;PMS7003;64967;50.234;19.224;2023-08-20T08:19:06;12.33;12.33;10.67
76049;PMS7003;64967;50.234;19.224;2023-08-20T08:21:33;9.33;9.33;7.33
76049;PMS7003;64967;50.234;19.224;2023-08-20T08:23:59;11.33;10.00;9.00
76049;PMS7003;64967;50.234;19.224;2023-08-20T08:26:26;13.00;13.00;10.00
76049;PMS7003;64967;50.234;19.224;2023-08-20T08:28:53;12.67;12.67;11.00
76049;PMS7003;64967;50.234;19.224;2023-08-20T08:31:33;12.00;11.67;10.33
76049;PMS7003;64967;50.234;19.224;2023-08-20T08:34:01;17.00;15.67;13.00
76049;PMS7003;64967;50.234;19.224;2023-08-20T08:36:29;11.33;10.67;9.00
76049;PMS7003;64967;50.234;19.224;2023-08-20T08:38:56;11.67;11.67;10.00
76049;PMS7003;64967;50.234;19.224;2023-08-20T08:41:23;13.67;12.00;9.33
76049;PMS7003;64967;50.234;19.224;2023-08-20T08:43:53;11.00;10.67;9.00
76049;PMS7003;64967;50.234;19.224;2023-08-20T08:46:21;11.33;11.00;10.00
76049;PMS7003;64967;50.234;19.224;2023-08-20T08:48:50;30.00;29.00;22.00
76049;PMS7003;64967;50.234;19.224;2023-08-20T08:51:19;26.33;26.00;18.67
76049;PMS7003;64967;50.234;19.224;2023-08-20T08:53:47;18.33;18.00;13.67
76049;PMS7003;64967;50.234;19.224;2023-08-20T08:56:26;18.00;17.00;12.67
76049;PMS7003;64967;50.234;19.224;2023-08-20T08:58:53;14.00;14.00;11.33
76049;PMS7003;64967;50.234;19.224;2023-08-20T09:01:20;13.67;12.33;10.33
76049;PMS7003;64967;50.234;19.224;2023-08-20T09:03:49;14.33;14.00;10.67
76049;PMS7003;64967;50.234;19.224;2023-08-20T09:06:16;12.67;12.00;10.33
76049;PMS7003;64967;50.234;19.224;2023-08-20T09:08:43;15.33;14.33;11.00
76049;PMS7003;64967;50.234;19.224;2023-08-20T09:11:10;14.67;13.33;11.33
76049;PMS7003;64967;50.234;19.224;2023-08-20T09:13:43;18.67;18.33;14.33
76049;PMS7003;64967;50.234;19.224;2023-08-20T09:16:11;18.33;16.00;13.00
76049;PMS7003;64967;50.234;19.224;2023-08-20T09:18:39;17.00;14.00;13.00
76049;PMS7003;64967;50.234;19.224;2023-08-20T09:21:13;11.33;11.33;9.67
76049;PMS7003;64967;50.234;19.224;2023-08-20T09:23:40;16.33;16.00;13.00
76049;PMS7003;64967;50.234;19.224;2023-08-20T09:26:12;17.00;15.33;13.33
76049;PMS7003;64967;50.234;19.224;2023-08-20T09:28:41;15.33;14.67;13.00
76049;PMS7003;64967;50.234;19.224;2023-08-20T09:31:09;19.67;18.00;13.00
76049;PMS7003;64967;50.234;19.224;2023-08-20T09:33:38;15.00;15.00;12.33
76049;PMS7003;64967;50.234;19.224;2023-08-20T09:36:32;14.50;12.50;9.50
76049;PMS7003;64967;50.234;19.224;2023-08-20T09:39:01;13.33;13.00;11.00
76049;PMS7003;64967;50.234;19.224;2023-08-20T09:41:28;15.00;14.00;11.33
76049;PMS7003;64967;50.234;19.224;2023-08-20T09:44:02;12.67;12.33;10.00
76049;PMS7003;64967;50.234;19.224;2023-08-20T09:46:32;12.00;11.33;10.00
76049;PMS7003;64967;50.234;19.224;2023-08-20T09:49:13;11.00;11.00;9.00
76049;PMS7003;64967;50.234;19.224;2023-08-20T09:52:05;13.67;12.67;10.67
76049;PMS7003;64967;50.234;19.224;2023-08-20T09:57:33;10.00;9.50;8.00
76049;PMS7003;64967;50.234;19.224;2023-08-20T10:00:07;14.00;14.00;12.00
76049;PMS7003;64967;50.234;19.224;2023-08-20T10:02:45;13.67;12.67;10.33
76049;PMS7003;64967;50.234;19.224;2023-08-20T10:05:30;12.33;12.33;11.00
76049;PMS7003;64967;50.234;19.224;2023-08-20T10:08:03;9.67;9.67;8.00
76049;PMS7003;64967;50.234;19.224;2023-08-20T10:10:43;9.33;9.33;8.00
76049;PMS7003;64967;50.234;19.224;2023-08-20T10:13:19;13.33;13.00;9.00
76049;PMS7003;64967;50.234;19.224;2023-08-20T10:15:46;13.33;13.33;12.33
76049;PMS7003;64967;50.234;19.224;2023-08-20T10:18:21;12.25;11.25;8.25
76049;PMS7003;64967;50.234;19.224;2023-08-20T10:20:51;16.33;14.67;11.33
76049;PMS7003;64967;50.234;19.224;2023-08-20T10:23:22;14.50;14.00;12.00
76049;PMS7003;64967;50.234;19.224;2023-08-20T10:25:52;11.00;11.00;10.33
76049;PMS7003;64967;50.234;19.224;2023-08-20T10:28:20;19.67;18.00;15.67
76049;PMS7003;64967;50.234;19.224;2023-08-20T10:33:53;19.00;19.00;15.00
76049;PMS7003;64967;50.234;19.224;2023-08-20T10:36:31;25.00;24.67;18.67
76049;PMS7003;64967;50.234;19.224;2023-08-20T10:39:08;17.00;17.00;13.33
76049;PMS7003;64967;50.234;19.224;2023-08-20T10:42:07;15.00;14.67;13.00
76049;PMS7003;64967;50.234;19.224;2023-08-20T10:45:06;14.67;14.00;11.00
76049;PMS7003;64967;50.234;19.224;2023-08-20T10:50:08;13.00;12.33;11.00
76049;PMS7003;64967;50.234;19.224;2023-08-20T10:52:47;10.67;10.67;9.00
76049;PMS7003;64967;50.234;19.224;2023-08-20T10:55:15;14.67;14.67;11.33
76049;PMS7003;64967;50.234;19.224;2023-08-20T10:57:54;16.33;16.00;14.00
76049;PMS7003;64967;50.234;19.224;2023-08-20T11:00:21;8.00;8.00;7.00
76049;PMS7003;64967;50.234;19.224;2023-08-20T11:02:48;13.33;12.33;10.33
76049;PMS7003;64967;50.234;19.224;2023-08-20T11:05:16;15.67;15.00;12.67
76049;PMS7003;64967;50.234;19.224;2023-08-20T11:07:44;15.67;15.33;11.67
76049;PMS7003;64967;50.234;19.224;2023-08-20T11:10:22;14.50;14.00;12.00
76049;PMS7003;64967;50.234;19.224;2023-08-20T11:12:52;17.00;16.67;13.33
76049;PMS7003;64967;50.234;19.224;2023-08-20T11:15:48;22.67;21.33;16.67
76049;PMS7003;64967;50.234;19.224;2023-08-20T11:18:19;21.33;18.33;15.33
76049;PMS7003;64967;50.234;19.224;2023-08-20T11:20:57;19.33;19.00;15.00
76049;PMS7003;64967;50.234;19.224;2023-08-20T11:23:33;19.33;18.33;13.67
76049;PMS7003;64967;50.234;19.224;2023-08-20T11:26:14;17.67;17.33;14.00
76049;PMS7003;64967;50.234;19.224;2023-08-20T11:28:46;18.67;18.33;15.00
76049;PMS7003;64967;50.234;19.224;2023-08-20T11:31:13;23.00;21.00;17.33
76049;PMS7003;64967;50.234;19.224;2023-08-20T11:33:44;22.67;21.33;17.67
76049;PMS7003;64967;50.234;19.224;2023-08-20T11:36:10;20.00;19.67;15.33
76049;PMS7003;64967;50.234;19.224;2023-08-20T11:38:38;16.33;15.00;11.00
76049;PMS7003;64967;50.234;19.224;2023-08-20T11:41:04;19.00;17.00;14.67
76049;PMS7003;64967;50.234;19.224;2023-08-20T11:43:31;15.00;15.00;12.67
76049;PMS7003;64967;50.234;19.224;2023-08-20T11:45:59;17.33;16.33;14.33
76049;PMS7003;64967;50.234;19.224;2023-08-20T11:48:25;14.00;14.00;11.67
76049;PMS7003;64967;50.234;19.224;2023-08-20T11:50:52;16.33;15.67;12.67
76049;PMS7003;64967;50.234;19.224;2023-08-20T11:53:23;12.33;12.33;10.33
76049;PMS7003;64967;50.234;19.224;2023-08-20T11:55:50;15.25;13.00;11.25
76049;PMS7003;64967;50.234;19.224;2023-08-20T11:58:18;11.67;11.00;9.00
76049;PMS7003;64967;50.234;19.224;2023-08-20T12:00:47;14.75;13.50;11.00
76049;PMS7003;64967;50.234;19.224;2023-08-20T12:03:15;12.00;12.00;10.00
76049;PMS7003;64967;50.234;19.224;2023-08-20T12:05:44;11.50;11.50;8.25
76049;PMS7003;64967;50.234;19.224;2023-08-20T12:08:14;10.75;10.50;9.00
76049;PMS7003;64967;50.234;19.224;2023-08-20T12:10:43;14.33;13.67;11.67
76049;PMS7003;64967;50.234;19.224;2023-08-20T12:13:10;16.67;16.33;13.33
76049;PMS7003;64967;50.234;19.224;2023-08-20T12:15:37;18.00;17.00;14.67
76049;PMS7003;64967;50.234;19.224;2023-08-20T12:18:04;14.75;14.75;11.75
76049;PMS7003;64967;50.234;19.224;2023-08-20T12:20:32;12.25;12.25;10.75
76049;PMS7003;64967;50.234;19.224;2023-08-20T12:23:15;17.33;16.33;13.00
76049;PMS7003;64967;50.234;19.224;2023-08-20T12:25:42;18.00;18.00;14.00
76049;PMS7003;64967;50.234;19.224;2023-08-20T12:28:27;16.00;16.00;13.33
76049;PMS7003;64967;50.234;19.224;2023-08-20T12:30:56;17.33;16.33;14.00
76049;PMS7003;64967;50.234;19.224;2023-08-20T12:33:22;14.33;14.00;11.00
76049;PMS7003;64967;50.234;19.224;2023-08-20T12:35:53;11.50;11.50;9.50
76049;PMS7003;64967;50.234;19.224;2023-08-20T12:38:21;10.50;10.00;8.25
76049;PMS7003;64967;50.234;19.224;2023-08-20T12:40:54;12.50;12.50;9.75
76049;PMS7003;64967;50.234;19.224;2023-08-20T12:43:35;9.00;8.25;7.50
76049;PMS7003;64967;50.234;19.224;2023-08-20T12:46:02;7.00;6.75;6.00
76049;PMS7003;64967;50.234;19.224;2023-08-20T12:48:30;8.00;7.25;5.75
76049;PMS7003;64967;50.234;19.224;2023-08-20T12:50:56;6.25;6.00;5.25
76049;PMS7003;64967;50.234;19.224;2023-08-20T12:53:23;13.33;13.33;11.33
76049;PMS7003;64967;50.234;19.224;2023-08-20T12:55:50;13.50;12.50;10.50
76049;PMS7003;64967;50.234;19.224;2023-08-20T12:58:17;14.33;12.00;10.00
76049;PMS7003;64967;50.234;19.224;2023-08-20T13:00:44;11.67;11.67;10.00
76049;PMS7003;64967;50.234;19.224;2023-08-20T13:03:10;9.50;9.00;8.25
76049;PMS7003;64967;50.234;19.224;2023-08-20T13:05:38;14.50;13.00;10.50
76049;PMS7003;64967;50.234;19.224;2023-08-20T13:08:05;10.00;10.00;8.50
76049;PMS7003;64967;50.234;19.224;2023-08-20T13:10:41;9.75;9.75;8.00
76049;PMS7003;64967;50.234;19.224;2023-08-20T13:13:20;10.25;10.25;8.50
76049;PMS7003;64967;50.234;19.224;2023-08-20T13:15:50;8.25;8.00;6.75
76049;PMS7003;64967;50.234;19.224;2023-08-20T13:18:37;0.00;0.00;0.00
76049;PMS7003;64967;50.234;19.224;2023-08-20T13:21:04;12.75;12.75;10.00
76049;PMS7003;64967;50.234;19.224;2023-08-20T13:23:30;11.75;11.25;9.00
76049;PMS7003;64967;50.234;19.224;2023-08-20T13:25:57;9.50;8.25;7.25
76049;PMS7003;64967;50.234;19.224;2023-08-20T13:28:24;17.33;17.00;13.00
76049;PMS7003;64967;50.234;19.224;2023-08-20T13:30:50;15.00;14.00;11.00
76049;PMS7003;64967;50.234;19.224;2023-08-20T13:33:17;14.00;14.00;12.67
76049;PMS7003;64967;50.234;19.224;2023-08-20T13:35:44;9.25;9.00;8.00
76049;PMS7003;64967;50.234;19.224;2023-08-20T13:38:11;12.75;12.00;9.75
76049;PMS7003;64967;50.234;19.224;2023-08-20T13:40:38;8.00;7.75;6.75
76049;PMS7003;64967;50.234;19.224;2023-08-20T13:43:04;9.00;9.00;8.00
76049;PMS7003;64967;50.234;19.224;2023-08-20T13:45:35;14.50;13.00;10.50
76049;PMS7003;64967;50.234;19.224;2023-08-20T13:48:09;13.75;13.50;11.50
76049;PMS7003;64967;50.234;19.224;2023-08-20T13:50:38;14.75;13.50;11.00
76049;PMS7003;64967;50.234;19.224;2023-08-20T13:53:06;16.67;15.33;13.00
76049;PMS7003;64967;50.234;19.224;2023-08-20T13:55:34;10.67;10.67;8.00
76049;PMS7003;64967;50.234;19.224;2023-08-20T13:58:42;10.50;10.50;8.50
76049;PMS7003;64967;50.234;19.224;2023-08-20T14:01:14;13.75;12.75;10.50
76049;PMS7003;64967;50.234;19.224;2023-08-20T14:03:43;14.00;12.25;10.75
76049;PMS7003;64967;50.234;19.224;2023-08-20T14:06:12;13.75;12.50;11.00
76049;PMS7003;64967;50.234;19.224;2023-08-20T14:08:39;14.25;14.25;11.50
76049;PMS7003;64967;50.234;19.224;2023-08-20T14:11:10;15.33;14.67;12.00
76049;PMS7003;64967;50.234;19.224;2023-08-20T14:13:41;14.00;13.33;11.67
76049;PMS7003;64967;50.234;19.224;2023-08-20T14:16:09;13.25;12.50;10.00